Time;durP1;ratioP1;P1;durP2;ratioP2;P2;SDS_P1;SDS_P2;PMS_P1;PMS_P2;Temp;Humidity;BMP_temperature;BMP_pressure;BME280_temperature;BME280_humidity;BME280_pressure;Samples;Min_cycle;Max_cycle;Signal;HPM_P1;HPM_P2
2023/08/30 00:01:51;;;;;;;9.15;5.35;;;;;;;25.72;51.61;98893.47;5088473;28;20039;-29
2023/08/30 00:04:17;;;;;;;12.23;5.93;;;;;;;25.50;52.19;98892.09;5088673;28;20499;-29
2023/08/30 00:06:43;;;;;;;12.80;5.80;;;;;;;25.47;52.18;98890.84;5088364;28;20032;-29
2023/08/30 00:09:08;;;;;;;8.65;5.13;;;;;;;25.32;52.50;98886.94;5088428;28;20024;-29
2023/08/30 00:11:34;;;;;;;8.90;5.20;;;;;;;25.20;52.97;98882.28;5088541;28;20024;-29
2023/08/30 00:14:05;;;;;;;12.18;5.85;;;;;;;25.43;52.36;98870.84;5088512;28;20028;-28
2023/08/30 00:16:31;;;;;;;9.05;5.57;;;;;;;25.14;53.21;98874.69;5088472;28;20061;-29
2023/08/30 00:18:57;;;;;;;8.60;5.60;;;;;;;25.15;52.83;98866.16;5088224;28;20028;-29
2023/08/30 00:21:22;;;;;;;9.82;5.70;;;;;;;25.14;53.61;98871.97;5088280;28;20028;-30
2023/08/30 00:23:48;;;;;;;9.57;5.50;;;;;;;25.30;52.52;98872.06;5088146;28;20024;-30
2023/08/30 00:26:13;;;;;;;10.02;5.35;;;;;;;25.30;52.80;98877.50;5087995;28;20028;-29
2023/08/30 00:28:38;;;;;;;7.15;5.22;;;;;;;25.12;53.62;98875.03;5087696;28;20040;-29
2023/08/30 00:31:05;;;;;;;12.43;6.18;;;;;;;25.12;54.45;98872.28;5088166;28;20157;-31
2023/08/30 00:33:30;;;;;;;14.52;6.65;;;;;;;24.96;54.15;98871.44;5088134;28;20024;-29
2023/08/30 00:36:00;;;;;;;7.80;5.70;;;;;;;25.05;53.13;98856.53;5087947;28;20016;-29
2023/08/30 00:38:28;;;;;;;9.85;5.43;;;;;;;25.00;53.46;98869.59;5087045;28;20035;-29
2023/08/30 00:40:54;;;;;;;10.82;5.40;;;;;;;24.91;53.46;98867.00;5087752;28;20043;-30
2023/08/30 00:43:20;;;;;;;8.13;5.75;;;;;;;25.00;53.33;98872.31;5086479;28;20020;-32
2023/08/30 00:45:47;;;;;;;10.13;5.95;;;;;;;24.78;53.68;98868.94;5087591;28;20680;-34
2023/08/30 00:48:15;;;;;;;11.57;6.27;;;;;;;24.67;54.43;98859.66;5087613;28;20424;-31
2023/08/30 00:50:41;;;;;;;8.43;5.72;;;;;;;24.81;53.87;98864.75;5087704;28;20028;-31
2023/08/30 00:53:07;;;;;;;9.13;5.40;;;;;;;24.81;53.58;98862.81;5087774;28;20035;-30
2023/08/30 00:55:37;;;;;;;9.40;5.88;;;;;;;24.79;53.92;98876.00;5087746;28;20024;-30
2023/08/30 00:58:03;;;;;;;9.98;5.60;;;;;;;24.93;53.10;98874.81;5087923;28;20024;-31
2023/08/30 01:00:32;;;;;;;12.95;5.82;;;;;;;24.86;53.50;98873.47;5087457;28;20363;-30
2023/08/30 01:02:58;;;;;;;10.77;5.55;;;;;;;24.78;53.74;98873.59;5087492;28;20024;-32
2023/08/30 01:05:24;;;;;;;8.45;5.63;;;;;;;24.67;53.96;98881.47;5087633;28;20424;-32
2023/08/30 01:07:51;;;;;;;9.65;5.28;;;;;;;24.99;53.45;98889.84;5087510;28;20055;-30
2023/08/30 01:10:17;;;;;;;8.77;6.10;;;;;;;24.95;53.10;98886.22;5087594;28;20140;-30
2023/08/30 01:13:09;;;;;;;8.63;5.70;;;;;;;25.01;52.89;98885.63;5086915;28;20357;-29
2023/08/30 01:15:38;;;;;;;8.10;5.38;;;;;;;24.84;53.32;98889.38;5082463;28;20040;-32
2023/08/30 01:18:07;;;;;;;7.88;5.38;;;;;;;24.65;53.75;98879.06;5087325;28;20069;-30
2023/08/30 01:20:37;;;;;;;8.55;5.20;;;;;;;24.70;53.83;98897.13;5087307;28;20554;-30
2023/08/30 01:23:06;;;;;;;8.60;5.63;;;;;;;24.69;54.34;98898.28;5087036;28;20028;-31
2023/08/30 01:25:43;;;;;;;10.70;6.18;;;;;;;24.63;54.31;98900.41;5087195;28;20063;-30
2023/08/30 01:28:12;;;;;;;8.07;5.43;;;;;;;24.76;54.05;98911.31;5086745;28;20488;-30
2023/08/30 01:30:41;;;;;;;8.75;5.63;;;;;;;24.69;53.67;98906.44;5086847;28;20043;-30
2023/08/30 01:33:08;;;;;;;8.38;5.38;;;;;;;24.62;54.84;98908.94;5086789;28;20039;-30
2023/08/30 01:35:36;;;;;;;13.68;5.60;;;;;;;24.56;54.40;98915.75;5086838;28;20032;-32
2023/08/30 01:38:05;;;;;;;11.45;6.03;;;;;;;24.41;54.72;98904.34;5087062;28;20040;-34
2023/08/30 01:40:36;;;;;;;8.20;5.57;;;;;;;24.50;54.93;98906.22;5086761;28;20032;-30
2023/08/30 01:43:02;;;;;;;11.35;5.70;;;;;;;24.61;54.60;98910.09;5086255;28;20035;-30
2023/08/30 01:45:29;;;;;;;9.63;5.88;;;;;;;24.41;55.18;98909.81;5086894;28;20035;-31
2023/08/30 01:47:57;;;;;;;10.52;5.55;;;;;;;24.49;55.20;98907.31;5086126;28;20098;-30
2023/08/30 01:50:23;;;;;;;9.00;6.07;;;;;;;24.59;54.83;98915.06;5086721;28;20559;-29
2023/08/30 01:52:51;;;;;;;9.57;6.03;;;;;;;24.51;55.31;98907.81;5086366;28;20020;-30
2023/08/30 01:55:18;;;;;;;;;;;;;;;24.31;55.79;98912.19;5087013;28;20115;-30
2023/08/30 01:57:43;;;;;;;9.98;6.28;;;;;;;24.10;56.48;98909.53;5086394;28;19907;-30
2023/08/30 02:00:09;;;;;;;8.23;5.40;;;;;;;24.21;55.89;98918.84;5086020;28;20039;-29
2023/08/30 02:02:34;;;;;;;8.32;5.43;;;;;;;24.23;56.34;98920.13;5086699;28;20035;-31
2023/08/30 02:05:02;;;;;;;9.18;5.80;;;;;;;24.52;55.93;98912.13;5086681;28;20416;-32
2023/08/30 02:07:42;;;;;;;8.98;5.75;;;;;;;24.23;56.37;98917.41;5086316;28;20515;-31
2023/08/30 02:10:11;;;;;;;8.93;5.63;;;;;;;24.10;56.94;98931.34;5086077;28;20058;-29
2023/08/30 02:12:46;;;;;;;10.60;5.65;;;;;;;24.17;56.49;98937.00;5086141;28;20447;-30
2023/08/30 02:15:13;;;;;;;9.85;6.53;;;;;;;24.38;57.01;98937.75;5085641;28;20050;-31
2023/08/30 02:17:38;;;;;;;9.23;5.53;;;;;;;24.19;56.17;98937.47;5086021;28;20115;-32
2023/08/30 02:20:07;;;;;;;9.82;5.95;;;;;;;24.15;56.19;98940.09;5086114;28;20042;-30
2023/08/30 02:22:33;;;;;;;15.68;6.60;;;;;;;24.21;56.98;98937.94;5085857;28;20542;-29
2023/08/30 02:24:59;;;;;;;9.88;5.78;;;;;;;24.19;57.76;98937.47;5085584;28;20038;-30
2023/08/30 02:27:25;;;;;;;8.18;6.13;;;;;;;24.10;56.31;98934.06;5085533;28;20027;-31
2023/08/30 02:29:50;;;;;;;9.75;5.95;;;;;;;24.04;56.19;98947.88;5085875;28;20032;-29
2023/08/30 02:32:20;;;;;;;10.88;6.53;;;;;;;24.01;56.24;98937.66;5085811;28;20028;-30
2023/08/30 02:34:47;;;;;;;8.15;6.32;;;;;;;23.90;56.32;98935.69;5085590;28;20039;-29
2023/08/30 02:37:12;;;;;;;12.57;5.78;;;;;;;23.75;57.70;98931.66;5085779;28;20508;-30
2023/08/30 02:39:38;;;;;;;11.35;5.88;;;;;;;23.54;59.51;98916.13;5085614;28;20157;-30
2023/08/30 02:42:03;;;;;;;9.85;6.28;;;;;;;23.86;57.70;98919.22;5085963;28;20035;-33
2023/08/30 02:44:28;;;;;;;10.73;6.43;;;;;;;23.81;57.49;98930.34;5085560;28;20059;-30
2023/08/30 02:46:54;;;;;;;9.85;7.05;;;;;;;23.89;58.91;98915.06;5085445;28;20032;-29
2023/08/30 02:49:19;;;;;;;13.07;7.55;;;;;;;23.95;58.67;98919.16;5085493;28;20142;-29
2023/08/30 02:51:44;;;;;;;10.18;7.07;;;;;;;24.00;58.45;98922.44;5085611;28;20417;-29
2023/08/30 02:54:12;;;;;;;12.52;6.50;;;;;;;23.81;59.35;98922.16;5084596;28;20028;-30
2023/08/30 02:56:37;;;;;;;11.10;7.07;;;;;;;23.86;59.34;98925.50;5085489;28;20028;-31
2023/08/30 02:59:03;;;;;;;14.18;6.63;;;;;;;23.73;59.02;98921.09;5085221;28;20423;-30
2023/08/30 03:01:28;;;;;;;9.73;6.72;;;;;;;23.76;60.30;98925.06;5085101;28;20043;-31
2023/08/30 03:03:54;;;;;;;9.75;6.28;;;;;;;23.67;60.66;98920.50;5085204;28;20873;-29
2023/08/30 03:06:22;;;;;;;13.65;7.32;;;;;;;23.51;61.12;98919.50;5085322;28;20035;-30
2023/08/30 03:08:47;;;;;;;19.10;7.20;;;;;;;23.34;61.65;98916.94;5085456;28;20123;-30
2023/08/30 03:11:13;;;;;;;14.15;7.28;;;;;;;23.40;61.36;98927.28;5085239;28;20080;-30
2023/08/30 03:13:39;;;;;;;12.07;6.57;;;;;;;23.45;58.69;98939.88;5085022;28;20028;-29
2023/08/30 03:16:12;;;;;;;13.60;7.30;;;;;;;23.02;60.10;98927.38;5085377;28;20043;-29
2023/08/30 03:18:39;;;;;;;9.23;6.50;;;;;;;23.09;62.29;98922.25;5084888;28;20493;-29
2023/08/30 03:21:04;;;;;;;11.68;6.22;;;;;;;23.05;61.93;98924.03;5085418;28;20038;-34
2023/08/30 03:23:33;;;;;;;10.32;6.40;;;;;;;23.12;62.83;98926.22;5084566;28;20031;-32
2023/08/30 03:25:59;;;;;;;9.25;5.93;;;;;;;23.30;61.72;98926.91;5085343;28;20024;-31
2023/08/30 03:28:25;;;;;;;12.35;6.53;;;;;;;23.10;60.71;98925.75;5085068;28;20577;-29
2023/08/30 03:30:51;;;;;;;10.77;6.25;;;;;;;23.04;61.34;98930.56;5085127;28;20020;-29
2023/08/30 03:33:16;;;;;;;7.93;6.50;;;;;;;23.12;61.45;98943.31;5085229;28;20497;-30
2023/08/30 03:35:41;;;;;;;10.00;6.78;;;;;;;23.03;63.01;98939.88;5084826;28;20463;-31
2023/08/30 03:38:07;;;;;;;10.55;6.55;;;;;;;22.78;62.75;98955.97;5084820;28;20073;-31
2023/08/30 03:40:32;;;;;;;15.50;7.90;;;;;;;22.72;62.65;98962.72;5084908;28;20024;-29
2023/08/30 03:42:58;;;;;;;10.77;6.72;;;;;;;22.65;62.86;98967.84;5084960;28;20024;-29
2023/08/30 03:45:23;;;;;;;14.48;7.38;;;;;;;22.49;63.55;98959.41;5084963;28;20077;-30
2023/08/30 03:47:49;;;;;;;11.20;6.50;;;;;;;22.26;65.60;98961.56;5085039;28;20056;-30
2023/08/30 03:50:14;;;;;;;8.68;6.40;;;;;;;22.22;66.66;98966.03;5085122;28;20035;-29
2023/08/30 03:52:40;;;;;;;13.30;7.50;;;;;;;22.45;66.33;98981.03;5084734;28;20031;-31
2023/08/30 03:55:06;;;;;;;11.20;6.85;;;;;;;22.54;65.75;98972.06;5084941;28;20020;-31
2023/08/30 03:57:31;;;;;;;13.43;7.30;;;;;;;22.64;64.82;98980.63;5084660;28;20568;-30
2023/08/30 03:59:56;;;;;;;8.77;6.80;;;;;;;22.59;63.55;98993.59;5085158;28;20020;-29
2023/08/30 04:02:23;;;;;;;15.75;7.50;;;;;;;22.53;63.70;98992.19;5084720;28;20488;-29
2023/08/30 04:04:48;;;;;;;19.80;8.90;;;;;;;22.46;63.91;98993.47;5084880;28;20021;-29
2023/08/30 04:07:15;;;;;;;15.68;7.97;;;;;;;22.40;65.17;99002.13;5088021;28;20028;-29
2023/08/30 04:09:40;;;;;;;13.45;8.30;;;;;;;22.73;64.54;98996.13;5088393;28;20331;-30
2023/08/30 04:12:06;;;;;;;14.80;7.35;;;;;;;23.06;63.88;98999.81;5089041;28;20641;-31
2023/08/30 04:14:32;;;;;;;14.05;7.65;;;;;;;23.57;62.06;99004.47;5088281;28;20115;-29
2023/08/30 04:16:58;;;;;;;12.55;8.63;;;;;;;23.73;62.42;98999.22;5088312;28;20106;-29
2023/08/30 04:19:23;;;;;;;19.63;8.57;;;;;;;23.58;61.42;98998.69;5088516;28;20028;-29
2023/08/30 04:21:48;;;;;;;16.13;8.98;;;;;;;23.38;62.73;99002.22;5088163;28;20031;-29
2023/08/30 04:24:15;;;;;;;14.65;8.85;;;;;;;23.35;62.54;98997.41;5087920;28;20032;-32
2023/08/30 04:26:41;;;;;;;14.45;9.73;;;;;;;23.54;62.37;99003.22;5088276;28;20024;-30
2023/08/30 04:29:06;;;;;;;19.80;8.98;;;;;;;23.66;61.67;99006.00;5087952;28;20048;-32
2023/08/30 04:31:34;;;;;;;21.00;9.63;;;;;;;23.43;62.48;98996.56;5087894;28;20016;-29
2023/08/30 04:33:59;;;;;;;15.02;10.27;;;;;;;23.22;62.44;98991.88;5088423;28;20057;-31
2023/08/30 04:36:25;;;;;;;16.65;10.45;;;;;;;23.22;62.67;99001.97;5087699;28;20028;-32
2023/08/30 04:38:53;;;;;;;18.50;10.57;;;;;;;23.17;63.29;99000.25;5087921;28;20036;-32
2023/08/30 04:41:21;;;;;;;16.40;9.98;;;;;;;23.31;62.50;99001.91;5087945;28;20066;-33
2023/08/30 04:43:47;;;;;;;18.33;11.45;;;;;;;23.02;62.21;99003.53;5087708;28;20085;-31
2023/08/30 04:46:12;;;;;;;17.48;10.85;;;;;;;22.78;62.80;98994.03;5087661;28;20443;-33
2023/08/30 04:48:38;;;;;;;22.58;12.35;;;;;;;23.00;61.85;99003.81;5087815;28;20036;-31
2023/08/30 04:51:07;;;;;;;23.52;12.60;;;;;;;22.63;63.60;99008.91;5087869;28;20080;-29
2023/08/30 04:53:32;;;;;;;20.73;14.20;;;;;;;22.69;64.00;99006.03;5087650;28;20031;-31
2023/08/30 04:55:58;;;;;;;20.25;13.57;;;;;;;22.72;62.99;98999.94;5087531;28;20024;-30
2023/08/30 04:58:24;;;;;;;20.20;14.45;;;;;;;22.22;65.28;99004.06;5086230;28;20573;-29
2023/08/30 05:00:51;;;;;;;21.33;15.75;;;;;;;22.28;65.61;99002.78;5087565;28;20027;-29
2023/08/30 05:03:17;;;;;;;27.30;17.27;;;;;;;22.21;65.64;99005.16;5087500;28;20024;-32
2023/08/30 05:05:46;;;;;;;27.42;17.73;;;;;;;22.30;65.23;99000.56;5087525;28;20024;-33
2023/08/30 05:08:12;;;;;;;24.55;17.73;;;;;;;22.08;66.76;99005.00;5087515;28;20097;-33
2023/08/30 05:10:37;;;;;;;25.17;17.52;;;;;;;22.15;67.44;99009.16;5087471;28;20040;-32
2023/08/30 05:13:03;;;;;;;25.20;17.35;;;;;;;22.35;67.05;99019.41;5087375;28;20032;-31
2023/08/30 05:15:31;;;;;;;22.67;16.98;;;;;;;22.46;65.82;99028.00;5087155;28;20032;-30
2023/08/30 05:17:56;;;;;;;25.95;17.10;;;;;;;22.76;65.92;99033.50;5086402;28;20126;-32
2023/08/30 05:20:22;;;;;;;26.33;17.40;;;;;;;22.96;64.05;99023.84;5087159;28;20420;-30
2023/08/30 05:22:47;;;;;;;25.40;17.52;;;;;;;22.75;64.95;99010.97;5087081;28;20027;-30
2023/08/30 05:25:13;;;;;;;22.15;16.77;;;;;;;22.82;65.59;99024.84;5086823;28;20028;-30
2023/08/30 05:27:38;;;;;;;23.65;17.95;;;;;;;22.95;64.24;99019.53;5087010;28;20024;-30
2023/08/30 05:30:04;;;;;;;23.05;17.15;;;;;;;23.19;64.51;99029.81;5087069;28;20020;-32
2023/08/30 05:32:31;;;;;;;22.67;17.13;;;;;;;23.52;62.71;99013.63;5086880;28;20085;-32
2023/08/30 05:34:56;;;;;;;23.70;17.50;;;;;;;23.87;61.19;99032.47;5086741;28;20089;-31
2023/08/30 05:37:22;;;;;;;22.52;16.20;;;;;;;23.93;60.78;99042.03;5086656;28;20463;-30
2023/08/30 05:39:47;;;;;;;22.90;16.70;;;;;;;23.70;62.41;99044.25;5086945;28;20044;-30
2023/08/30 05:42:12;;;;;;;23.00;16.42;;;;;;;23.74;62.41;99041.66;5086522;28;20470;-30
2023/08/30 05:44:38;;;;;;;21.50;16.30;;;;;;;23.82;61.72;99035.38;5086908;28;20107;-30
2023/08/30 05:47:04;;;;;;;22.17;16.55;;;;;;;24.02;61.05;99020.16;5086736;28;20031;-30
2023/08/30 05:49:29;;;;;;;19.55;15.40;;;;;;;24.41;59.41;99037.09;5086418;28;20052;-31
2023/08/30 05:51:55;;;;;;;19.88;14.93;;;;;;;24.48;59.72;99029.16;5086661;28;20071;-31
2023/08/30 05:54:20;;;;;;;21.27;15.07;;;;;;;24.77;58.73;99030.16;5086476;28;20024;-30
2023/08/30 05:56:45;;;;;;;22.73;13.70;;;;;;;24.70;59.53;99030.69;5086184;28;20164;-32
2023/08/30 05:59:11;;;;;;;17.40;13.98;;;;;;;24.83;58.61;99031.53;5086119;28;20031;-31
2023/08/30 06:01:36;;;;;;;22.30;14.55;;;;;;;24.86;58.91;99039.03;5086203;28;20459;-34
2023/08/30 06:04:04;;;;;;;18.25;13.55;;;;;;;24.64;59.52;99037.50;5086222;28;20031;-32
2023/08/30 06:06:29;;;;;;;19.20;13.07;;;;;;;25.07;58.44;99038.94;5086045;28;20586;-30
2023/08/30 06:08:55;;;;;;;19.13;13.52;;;;;;;25.51;56.30;99041.09;5086202;28;20036;-31
2023/08/30 06:11:20;;;;;;;17.40;13.45;;;;;;;25.64;56.10;99040.72;5085583;28;20107;-31
2023/08/30 06:13:45;;;;;;;18.35;13.23;;;;;;;25.60;55.89;99023.44;5085870;28;20769;-31
2023/08/30 06:16:11;;;;;;;19.38;12.45;;;;;;;25.92;55.76;99026.34;5086486;28;20024;-31
2023/08/30 06:18:37;;;;;;;21.02;13.10;;;;;;;26.09;55.24;99024.44;5086150;28;20050;-32
2023/08/30 06:21:03;;;;;;;29.30;21.40;;;;;;;26.18;54.61;99019.63;5085744;28;20114;-31
2023/08/30 06:23:34;;;;;;;18.10;12.98;;;;;;;25.90;55.08;99031.34;5085413;28;20899;-30
2023/08/30 06:26:00;;;;;;;16.73;12.52;;;;;;;26.05;55.48;99041.56;5099700;28;20941;-30
2023/08/30 06:28:25;;;;;;;19.20;14.27;;;;;;;26.28;54.27;99042.94;5106046;28;20062;-31
2023/08/30 06:30:51;;;;;;;18.98;14.43;;;;;;;26.53;54.32;99043.59;5104751;28;20031;-30
2023/08/30 06:33:17;;;;;;;18.80;14.00;;;;;;;26.48;53.51;99039.19;5105567;28;20064;-31
2023/08/30 06:35:42;;;;;;;19.63;13.05;;;;;;;26.65;53.49;99038.09;5105734;28;20050;-31
2023/08/30 06:38:08;;;;;;;18.35;12.98;;;;;;;26.88;52.58;99045.69;5106313;28;20099;-31
2023/08/30 06:40:33;;;;;;;18.80;13.38;;;;;;;27.00;54.45;99049.13;5105843;28;20473;-32
2023/08/30 06:42:59;;;;;;;19.60;13.35;;;;;;;27.12;52.41;99056.44;5105630;28;20442;-30
2023/08/30 06:45:25;;;;;;;17.73;13.55;;;;;;;27.11;51.27;99060.31;5105708;28;20492;-32
2023/08/30 06:47:51;;;;;;;17.67;12.63;;;;;;;27.32;50.72;99062.00;5105550;28;20510;-29
2023/08/30 06:50:17;;;;;;;17.73;12.83;;;;;;;27.04;53.21;99060.16;5105456;28;20425;-29
2023/08/30 06:52:42;;;;;;;18.60;12.77;;;;;;;26.89;53.27;99071.88;5105239;28;20504;-30
2023/08/30 06:55:08;;;;;;;21.33;13.52;;;;;;;27.04;53.55;99071.09;5105325;28;20032;-30
2023/08/30 06:57:33;;;;;;;18.08;12.00;;;;;;;27.45;51.96;99074.44;5105551;28;20038;-29
2023/08/30 07:00:04;;;;;;;18.38;13.18;;;;;;;27.36;52.10;99071.09;5105168;28;20088;-31
2023/08/30 07:02:31;;;;;;;16.20;12.73;;;;;;;27.68;51.01;99069.09;5105525;28;20156;-31
2023/08/30 07:04:56;;;;;;;19.95;13.45;;;;;;;28.02;50.15;99083.94;5105644;28;20035;-27
2023/08/30 07:07:21;;;;;;;16.98;12.73;;;;;;;27.75;51.09;99073.94;5105573;28;20423;-29
2023/08/30 07:09:47;;;;;;;16.70;12.13;;;;;;;27.79;51.33;99074.81;5105809;28;20080;-31
2023/08/30 07:12:12;;;;;;;16.38;12.10;;;;;;;27.46;53.21;99067.81;5105549;28;20435;-30
2023/08/30 07:14:37;;;;;;;18.17;12.18;;;;;;;27.63;52.40;99067.41;5105548;28;20023;-29
2023/08/30 07:17:03;;;;;;;16.20;12.45;;;;;;;27.81;51.34;99067.03;5105452;28;20114;-29
2023/08/30 07:19:29;;;;;;;15.93;12.05;;;;;;;27.96;52.08;99055.22;5105263;28;20023;-29
2023/08/30 07:21:54;;;;;;;18.40;11.80;;;;;;;28.45;49.57;99075.75;5105558;28;20420;-30
2023/08/30 07:24:19;;;;;;;15.43;10.93;;;;;;;28.42;50.09;99077.28;5105640;28;20428;-30
2023/08/30 07:26:45;;;;;;;14.07;11.88;;;;;;;28.44;49.94;99077.72;5105554;28;20076;-29
2023/08/30 07:29:10;;;;;;;17.08;11.20;;;;;;;28.48;49.89;99079.72;5105462;28;20084;-30
2023/08/30 07:31:36;;;;;;;16.52;11.05;;;;;;;28.71;48.94;99077.03;5105463;28;20032;-29
2023/08/30 07:34:02;;;;;;;17.83;11.35;;;;;;;28.81;48.60;99079.97;5105521;28;20024;-29
2023/08/30 07:36:28;;;;;;;16.83;10.70;;;;;;;28.84;48.00;99081.97;5105574;28;20043;-29
2023/08/30 07:38:53;;;;;;;14.52;11.07;;;;;;;29.05;50.37;99078.81;5105481;28;20024;-30
2023/08/30 07:41:19;;;;;;;14.30;11.43;;;;;;;28.89;49.13;99074.59;5107209;28;20035;-29
2023/08/30 07:43:44;;;;;;;14.50;11.23;;;;;;;28.77;49.31;99070.91;5109182;28;20032;-29
2023/08/30 07:46:09;;;;;;;13.73;10.68;;;;;;;29.13;51.13;99077.00;5109288;28;20067;-29
2023/08/30 07:48:35;;;;;;;12.88;10.85;;;;;;;28.92;47.86;99076.63;5109194;28;20504;-30
2023/08/30 07:51:00;;;;;;;17.88;10.95;;;;;;;29.02;47.09;99059.53;5109542;28;20055;-30
2023/08/30 07:53:28;;;;;;;12.63;10.73;;;;;;;29.05;47.88;99056.06;5108460;28;20043;-31
2023/08/30 07:55:54;;;;;;;16.58;10.90;;;;;;;29.19;48.55;99067.28;5109410;28;20030;-30
2023/08/30 07:58:19;;;;;;;15.50;11.30;;;;;;;29.29;47.85;99076.06;5109143;28;20427;-30
2023/08/30 08:00:45;;;;;;;13.52;10.52;;;;;;;29.56;48.33;99074.13;5109168;28;20081;-30
2023/08/30 08:03:10;;;;;;;12.23;10.23;;;;;;;29.62;47.14;99081.66;5109213;27;20424;-30
2023/08/30 08:05:37;;;;;;;14.15;10.50;;;;;;;29.66;46.65;99084.47;5109015;28;20016;-30
2023/08/30 08:08:02;;;;;;;11.98;10.48;;;;;;;29.84;46.38;99088.28;5109168;28;20160;-31
2023/08/30 08:10:32;;;;;;;19.85;11.55;;;;;;;30.21;44.07;99075.75;5108900;28;20851;-31
2023/08/30 08:12:58;;;;;;;13.15;9.73;;;;;;;29.75;45.27;99084.22;5109000;28;20668;-31
2023/08/30 08:15:23;;;;;;;15.20;10.88;;;;;;;29.73;45.08;99076.34;5108808;28;20488;-30
2023/08/30 08:17:49;;;;;;;14.07;11.25;;;;;;;29.84;43.89;99088.28;5108532;28;20050;-30
2023/08/30 08:20:15;;;;;;;18.75;11.88;;;;;;;29.94;43.91;99081.34;5107193;28;20032;-32
2023/08/30 08:22:40;;;;;;;13.18;11.10;;;;;;;29.91;42.95;99093.06;5108785;28;20480;-29
2023/08/30 08:25:09;;;;;;;13.18;11.77;;;;;;;30.19;43.20;99075.34;5108689;28;20404;-30
2023/08/30 08:27:35;;;;;;;13.15;10.27;;;;;;;30.41;43.79;99074.44;5108458;28;20028;-30
2023/08/30 08:30:01;;;;;;;14.18;10.70;;;;;;;30.38;42.31;99077.16;5108339;28;20015;-30
2023/08/30 08:32:26;;;;;;;16.48;10.50;;;;;;;30.72;41.32;99080.66;5108612;28;20027;-28
2023/08/30 08:34:52;;;;;;;14.52;11.27;;;;;;;30.75;41.53;99079.91;5108599;28;20024;-29
2023/08/30 08:37:17;;;;;;;14.35;11.10;;;;;;;30.46;43.47;99065.06;5108833;28;20015;-29
2023/08/30 08:39:44;;;;;;;14.35;11.35;;;;;;;30.69;41.58;99064.91;5108706;28;20040;-31
2023/08/30 08:42:10;;;;;;;12.65;10.40;;;;;;;30.91;41.92;99062.38;5108575;28;20032;-30
2023/08/30 08:44:38;;;;;;;14.20;10.82;;;;;;;31.28;40.24;99064.22;5108036;28;20416;-31
2023/08/30 08:47:04;;;;;;;20.08;12.43;;;;;;;31.18;40.40;99069.28;5108320;28;20047;-29
2023/08/30 08:49:31;;;;;;;14.52;11.50;;;;;;;31.12;39.36;99059.00;5108318;28;20039;-30
2023/08/30 08:51:57;;;;;;;13.10;11.05;;;;;;;31.71;39.24;99073.59;5106702;28;20023;-29
2023/08/30 08:54:23;;;;;;;15.70;11.50;;;;;;;31.48;38.78;99068.31;5108119;28;20042;-32
2023/08/30 08:56:49;;;;;;;15.32;11.15;;;;;;;31.65;38.76;99064.09;5107897;28;20084;-29
2023/08/30 08:59:19;;;;;;;22.40;11.63;;;;;;;31.86;38.58;99049.63;5108014;28;20050;-30
2023/08/30 09:01:45;;;;;;;16.35;11.30;;;;;;;31.64;39.96;99052.28;5107809;28;20031;-31
2023/08/30 09:04:11;;;;;;;15.85;11.00;;;;;;;31.77;38.67;99049.19;5107887;28;20416;-30
2023/08/30 09:06:39;;;;;;;16.20;11.45;;;;;;;31.59;39.64;99044.38;5107771;28;20110;-29
2023/08/30 09:09:05;;;;;;;15.18;10.93;;;;;;;31.61;38.68;99044.00;5107930;28;20039;-29
2023/08/30 09:11:31;;;;;;;16.67;10.55;;;;;;;31.83;37.89;99040.19;5107421;28;20055;-29
2023/08/30 09:13:57;;;;;;;14.90;10.97;;;;;;;31.82;37.34;99048.81;5107518;28;20024;-29
2023/08/30 09:16:22;;;;;;;14.73;11.20;;;;;;;31.92;37.84;99039.81;5107340;28;20458;-29
2023/08/30 09:19:02;;;;;;;14.75;10.63;;;;;;;31.94;38.97;99037.47;5107402;28;20059;-31
2023/08/30 09:21:28;;;;;;;15.98;10.90;;;;;;;32.01;36.85;99043.00;5107104;28;20031;-30
2023/08/30 09:24:04;;;;;;;15.32;10.98;;;;;;;32.08;37.24;99031.25;5107345;28;20415;-30
2023/08/30 09:26:35;;;;;;;12.88;9.73;;;;;;;32.22;37.30;99023.00;5106616;28;20584;-29
2023/08/30 09:29:08;;;;;;;13.05;11.02;;;;;;;32.31;36.75;99028.13;5107332;28;20089;-29
2023/08/30 09:31:34;;;;;;;14.25;10.45;;;;;;;32.49;36.09;99024.59;5107476;28;20030;-33
2023/08/30 09:34:01;;;;;;;18.08;11.77;;;;;;;32.50;36.51;99017.91;5107184;28;20028;-30
2023/08/30 09:36:32;;;;;;;12.35;10.20;;;;;;;32.78;35.11;99023.47;5106891;28;20055;-29
2023/08/30 09:39:06;;;;;;;14.77;10.95;;;;;;;32.66;35.43;99010.06;5106883;28;20028;-29
2023/08/30 09:41:35;;;;;;;13.52;10.98;;;;;;;32.97;34.93;99014.00;5106969;28;20586;-29
2023/08/30 09:44:07;;;;;;;12.90;10.77;;;;;;;32.72;34.60;98999.44;5107236;28;20043;-31
2023/08/30 09:46:40;;;;;;;11.65;10.15;;;;;;;33.30;35.19;99008.47;5107106;28;20019;-30
2023/08/30 09:49:12;;;;;;;11.07;8.80;;;;;;;33.17;34.32;98999.81;5106533;28;20043;-29
2023/08/30 09:51:42;;;;;;;14.30;9.32;;;;;;;33.07;35.42;98998.59;5106800;28;20034;-30
2023/08/30 09:54:18;;;;;;;17.77;9.63;;;;;;;33.21;33.24;98995.06;5107124;28;20028;-29
2023/08/30 09:56:45;;;;;;;12.60;9.43;;;;;;;33.40;34.49;98988.31;5107220;28;20027;-29
2023/08/30 09:59:15;;;;;;;13.38;9.65;;;;;;;33.68;34.61;98994.97;5106403;28;20524;-30
2023/08/30 10:01:43;;;;;;;12.07;8.98;;;;;;;33.45;34.14;98987.91;5106592;28;20031;-31
2023/08/30 10:04:09;;;;;;;14.52;9.10;;;;;;;33.35;34.77;98992.28;5105847;28;20062;-29
2023/08/30 10:06:36;;;;;;;12.18;9.23;;;;;;;32.68;34.34;98985.63;5106438;28;20030;-32
2023/08/30 10:09:04;;;;;;;13.60;8.57;;;;;;;33.45;34.02;98987.91;5106637;28;20496;-30
2023/08/30 10:11:32;;;;;;;12.07;9.23;;;;;;;33.68;33.45;98986.66;5106248;28;20035;-29
2023/08/30 10:13:59;;;;;;;16.38;9.15;;;;;;;33.46;33.57;98977.63;5106445;28;20028;-30
2023/08/30 10:16:27;;;;;;;13.80;9.05;;;;;;;34.03;33.14;98978.19;5105851;28;20803;-29
2023/08/30 10:18:59;;;;;;;12.57;8.98;;;;;;;33.69;33.31;98979.94;5106094;28;20031;-29
2023/08/30 10:21:27;;;;;;;13.38;9.05;;;;;;;33.68;33.07;98983.91;5106088;27;20031;-30
2023/08/30 10:23:55;;;;;;;15.48;9.40;;;;;;;34.06;32.08;98964.72;5106271;28;20031;-29
2023/08/30 10:26:24;;;;;;;13.75;8.73;;;;;;;34.10;32.09;98977.34;5105910;28;20023;-31
2023/08/30 10:28:53;;;;;;;13.57;9.27;;;;;;;34.49;32.71;98964.44;5106470;28;20106;-29
2023/08/30 10:31:21;;;;;;;15.32;9.00;;;;;;;34.95;32.59;98977.13;5106236;28;20035;-31
2023/08/30 10:33:52;;;;;;;10.05;8.40;;;;;;;35.06;31.19;98975.03;5106229;28;20036;-30
2023/08/30 10:36:23;;;;;;;12.90;9.20;;;;;;;35.04;30.77;98960.03;5106088;28;20067;-30
2023/08/30 10:38:53;;;;;;;12.25;8.75;;;;;;;34.96;30.47;98965.66;5105926;28;20081;-29
2023/08/30 10:41:23;;;;;;;10.35;8.90;;;;;;;35.11;30.48;98960.75;5105869;28;20034;-31
2023/08/30 10:43:55;;;;;;;13.85;8.57;;;;;;;35.16;29.96;98957.53;5105969;28;20118;-29
2023/08/30 10:46:35;;;;;;;14.90;8.50;;;;;;;35.97;30.34;98951.41;5105935;28;20035;-29
2023/08/30 10:49:14;;;;;;;10.25;8.05;;;;;;;35.30;31.19;98945.50;5105670;28;20043;-28
2023/08/30 10:51:40;;;;;;;12.25;8.05;;;;;;;35.42;29.68;98941.41;5105906;28;20073;-30
2023/08/30 10:54:24;;;;;;;13.75;8.63;;;;;;;35.89;27.58;98940.84;5105796;28;20032;-29
2023/08/30 10:57:01;;;;;;;11.68;7.95;;;;;;;35.98;27.84;98933.56;5106002;28;20034;-32
2023/08/30 10:59:27;;;;;;;11.15;8.18;;;;;;;35.82;29.41;98930.63;5105484;27;20111;-29
2023/08/30 11:02:00;;;;;;;9.73;7.70;;;;;;;35.66;29.52;98927.69;5105114;28;20039;-29
2023/08/30 11:04:26;;;;;;;12.30;7.70;;;;;;;35.98;28.82;98928.03;5105461;28;20107;-29
2023/08/30 11:06:55;;;;;;;10.52;8.15;;;;;;;35.95;28.30;98928.84;5105622;28;20106;-29
2023/08/30 11:09:23;;;;;;;10.95;8.32;;;;;;;36.21;28.40;98918.19;5105684;28;20023;-33
2023/08/30 11:11:49;;;;;;;11.38;8.00;;;;;;;36.06;28.09;98919.56;5105275;28;20019;-30
2023/08/30 11:14:16;;;;;;;10.77;8.07;;;;;;;36.07;27.77;98915.63;5105727;28;20024;-31
2023/08/30 11:16:42;;;;;;;11.50;7.88;;;;;;;36.31;28.31;98919.22;5104432;28;20032;-29
2023/08/30 11:19:09;;;;;;;10.80;7.50;;;;;;;36.20;27.76;98916.63;5105579;28;20034;-30
2023/08/30 11:21:40;;;;;;;12.25;8.25;;;;;;;36.95;26.93;98917.34;5105316;28;20035;-30
2023/08/30 11:24:07;;;;;;;10.85;7.82;;;;;;;36.59;27.03;98909.63;5105718;28;20031;-30